Time;durP1;ratioP1;P1;durP2;ratioP2;P2;SDS_P1;SDS_P2;PMS_P1;PMS_P2;Temp;Humidity;BMP_temperature;BMP_pressure;BME280_temperature;BME280_humidity;BME280_pressure;Samples;Min_cycle;Max_cycle;Signal;HPM_P1;HPM_P2
2021/08/26 00:08:27;;;;;;;;;;;13.30;99.90;;;;;;6249059;23;19995;-90
2021/08/26 00:11:19;;;;;;;;;;;13.30;99.90;;;;;;6226830;23;20560;-90
2021/08/26 00:14:23;;;;;;;;;;;13.30;99.90;;;;;;6259910;23;19943;-91
2021/08/26 00:17:20;;;;;;;;;;;13.30;99.90;;;;;;6234729;23;19931;-90
2021/08/26 00:20:21;;;;;;;;;;;13.30;99.90;;;;;;6272496;22;19982;-91
2021/08/26 00:23:09;;;;;;;;;;;13.40;99.90;;;;;;6278270;22;19923;-90
2021/08/26 00:26:01;;;;;;;;;;;13.40;99.90;;;;;;6279680;22;19919;-90
2021/08/26 00:28:50;;;;;;;;;;;13.30;99.90;;;;;;6261744;22;19923;-90
2021/08/26 00:31:37;;;;;;;;;;;13.30;99.90;;;;;;6263103;22;19923;-91
2021/08/26 00:34:25;;;;;;;;;;;13.30;99.90;;;;;;6284206;22;19971;-90
2021/08/26 00:37:22;;;;;;;;;;;13.30;99.90;;;;;;6265632;22;19919;-88
2021/08/26 00:40:11;;;;;;;;;;;13.20;99.90;;;;;;6291023;22;19923;-90
2021/08/26 00:43:03;;;;;;;;;;;13.20;99.90;;;;;;6259657;22;20217;-90
2021/08/26 00:45:55;;;;;;;;;;;13.00;99.90;;;;;;6256775;22;19919;-89
2021/08/26 00:48:47;;;;;;;;;;;13.00;99.90;;;;;;6279675;22;19926;-90
2021/08/26 00:51:34;;;;;;;;;;;12.90;99.90;;;;;;6279280;22;19926;-90
2021/08/26 00:54:31;;;;;;;;;;;;;;;;;;;;;
2021/08/26 00:57:26;;;;;;;;;;;12.70;99.90;;;;;;6278310;22;19923;-91
2021/08/26 01:00:14;;;;;;;;;;;12.60;99.90;;;;;;6279278;22;19919;-90
2021/08/26 01:03:05;;;;;;;;;;;12.50;99.90;;;;;;6278482;22;19959;-92
2021/08/26 01:05:57;;;;;;;;;;;12.40;99.90;;;;;;6280065;22;20001;-89
2021/08/26 01:08:55;;;;;;;;;;;12.30;99.90;;;;;;6277496;22;19919;-91
2021/08/26 01:11:45;;;;;;;;;;;12.20;99.90;;;;;;6278464;22;20301;-90
2021/08/26 01:14:32;;;;;;;;;;;12.10;99.90;;;;;;6277764;22;19963;-90
2021/08/26 01:17:20;;;;;;;;;;;12.00;99.90;;;;;;6255840;22;19949;-90
2021/08/26 01:20:08;;;;;;;;;;;12.00;99.90;;;;;;6280039;22;19934;-92
2021/08/26 01:22:56;;;;;;;;;;;12.00;99.90;;;;;;6280910;22;20001;-91
2021/08/26 01:25:57;;;;;;;;;;;12.10;99.90;;;;;;6257849;22;19986;-91
2021/08/26 01:28:48;;;;;;;;;;;12.10;99.90;;;;;;6256788;22;20026;-91
2021/08/26 01:31:38;;;;;;;;;;;12.00;99.90;;;;;;6278071;22;20010;-92
2021/08/26 01:34:25;;;;;;;;;;;12.00;99.90;;;;;;6256405;22;19919;-90
2021/08/26 01:37:35;;;;;;;;;;;;;;;;;;;;;
2021/08/26 01:41:10;;;;;;;;;;;11.80;99.90;;;;;;6270786;22;20010;-89
2021/08/26 01:45:03;;;;;;;;;;;11.70;99.90;;;;;;6278904;22;19971;-91
2021/08/26 01:47:51;;;;;;;;;;;11.60;99.90;;;;;;6278185;22;19919;-90
2021/08/26 01:50:39;;;;;;;;;;;11.60;99.90;;;;;;6277485;22;20258;-89
2021/08/26 01:53:27;;;;;;;;;;;11.60;99.90;;;;;;6277278;22;19920;-91
2021/08/26 01:56:14;;;;;;;;;;;11.50;99.90;;;;;;6275648;22;19920;-90
2021/08/26 01:59:05;;;;;;;;;;;11.50;99.90;;;;;;6275579;22;19923;-92
2021/08/26 02:01:52;;;;;;;;;;;11.50;99.90;;;;;;6276995;22;19959;-90
2021/08/26 02:04:43;;;;;;;;;;;11.40;99.90;;;;;;6276354;22;19930;-90
2021/08/26 02:07:30;;;;;;;;;;;11.40;99.90;;;;;;6277741;22;19934;-89
2021/08/26 02:10:18;;;;;;;;;;;11.30;99.90;;;;;;6276210;22;19919;-90
2021/08/26 02:13:07;;;;;;;;;;;11.30;99.90;;;;;;6276513;22;19926;-90
2021/08/26 02:15:56;;;;;;;;;;;11.30;99.90;;;;;;6276006;22;20000;-88
2021/08/26 02:18:44;;;;;;;;;;;11.20;99.90;;;;;;6276295;22;19935;-91
2021/08/26 02:21:31;;;;;;;;;;;11.20;99.90;;;;;;6278334;22;19919;-90
2021/08/26 02:24:19;;;;;;;;;;;11.10;99.90;;;;;;6277896;22;20283;-89
2021/08/26 02:27:09;;;;;;;;;;;11.00;99.90;;;;;;6275501;22;20263;-92
2021/08/26 02:29:59;;;;;;;;;;;10.90;99.90;;;;;;6277963;22;19926;-90
2021/08/26 02:32:46;;;;;;;;;;;10.80;99.90;;;;;;6277513;22;19927;-90
2021/08/26 02:35:34;;;;;;;;;;;10.80;99.90;;;;;;6276519;22;19929;-91
2021/08/26 02:38:21;;;;;;;;;;;10.70;99.90;;;;;;6256045;22;19926;-89
2021/08/26 02:41:08;;;;;;;;;;;10.70;99.90;;;;;;6288454;22;19919;-87
2021/08/26 02:44:00;;;;;;;;;;;10.70;99.90;;;;;;6280968;22;19942;-91
2021/08/26 02:46:49;;;;;;;;;;;10.70;99.90;;;;;;6253681;22;19951;-91
2021/08/26 02:49:46;;;;;;;;;;;10.70;99.90;;;;;;6277358;22;20049;-91
2021/08/26 02:52:34;;;;;;;;;;;10.70;99.90;;;;;;6275775;22;19930;-92
2021/08/26 02:55:29;;;;;;;;;;;10.80;99.90;;;;;;6275611;22;19945;-91
2021/08/26 02:58:39;;;;;;;;;;;10.80;99.90;;;;;;6276660;22;19930;-92
2021/08/26 03:01:29;;;;;;;;;;;10.80;99.90;;;;;;6274627;22;20006;-90
2021/08/26 03:04:19;;;;;;;;;;;10.80;99.90;;;;;;6278263;22;20287;-90
2021/08/26 03:07:12;;;;;;;;;;;10.80;99.90;;;;;;6277666;22;19930;-94
2021/08/26 03:10:17;;;;;;;;;;;10.80;99.90;;;;;;6277150;22;19919;-93
2021/08/26 03:13:35;;;;;;;;;;;10.80;99.90;;;;;;6155656;23;20312;-90
2021/08/26 03:16:46;;;;;;;;;;;10.80;99.90;;;;;;6154180;23;20417;-92
2021/08/26 03:20:06;;;;;;;;;;;10.80;99.90;;;;;;6154566;23;19931;-92
2021/08/26 03:23:44;;;;;;;;;;;10.70;99.90;;;;;;6070382;23;20234;-94
2021/08/26 03:26:36;;;;;;;;;;;10.70;99.90;;;;;;6069212;23;19921;-90
2021/08/26 03:29:47;;;;;;;;;;;10.80;99.90;;;;;;6069824;23;19925;-91
2021/08/26 03:32:59;;;;;;;;;;;11.00;99.90;;;;;;6069391;23;20000;-90
2021/08/26 03:35:57;;;;;;;;;;;11.00;99.90;;;;;;6068051;23;20329;-92
2021/08/26 03:39:12;;;;;;;;;;;11.10;99.90;;;;;;6067864;23;19932;-91
2021/08/26 03:42:29;;;;;;;;;;;11.20;99.90;;;;;;6068914;23;19925;-92
2021/08/26 03:45:28;;;;;;;;;;;11.30;99.90;;;;;;6134813;23;20036;-91
2021/08/26 03:48:57;;;;;;;;;;;11.30;99.90;;;;;;6054045;23;19962;-92
2021/08/26 03:52:16;;;;;;;;;;;11.40;99.90;;;;;;5958602;23;19934;-89
2021/08/26 03:55:15;;;;;;;;;;;11.40;99.90;;;;;;6070258;23;19927;-92
2021/08/26 03:58:24;;;;;;;;;;;11.40;99.90;;;;;;6126702;23;19984;-91
2021/08/26 04:01:12;;;;;;;;;;;11.40;99.90;;;;;;6125090;23;20222;-91
2021/08/26 04:07:48;;;;;;;;;;;11.30;99.90;;;;;;6282306;22;19934;-90
2021/08/26 04:10:39;;;;;;;;;;;11.10;99.90;;;;;;6255573;22;19993;-90
2021/08/26 04:13:28;;;;;;;;;;;11.10;99.90;;;;;;6277386;22;19965;-90
2021/08/26 04:16:22;;;;;;;;;;;11.10;99.90;;;;;;6258548;22;19981;-91
2021/08/26 04:19:36;;;;;;;;;;;;;;;;;;;;;
2021/08/26 04:22:44;;;;;;;;;;;11.00;99.90;;;;;;6284286;22;19931;-93
2021/08/26 04:25:48;;;;;;;;;;;11.00;99.90;;;;;;6267731;22;20022;-88
2021/08/26 04:28:36;;;;;;;;;;;11.00;99.90;;;;;;6256459;22;19929;-90
2021/08/26 04:31:37;;;;;;;;;;;11.00;99.90;;;;;;6260253;22;19923;-89
2021/08/26 04:34:25;;;;;;;;;;;11.00;99.90;;;;;;6260463;22;19919;-90
2021/08/26 04:37:23;;;;;;;;;;;11.10;99.90;;;;;;6260425;22;19993;-89
2021/08/26 04:40:11;;;;;;;;;;;11.20;99.90;;;;;;6277172;22;20350;-89
2021/08/26 04:43:23;;;;;;;;;;;11.20;99.90;;;;;;6281343;22;19927;-88
2021/08/26 04:46:28;;;;;;;;;;;11.30;99.90;;;;;;6221580;23;19959;-93
2021/08/26 04:49:19;;;;;;;;;;;11.30;99.90;;;;;;6224813;23;19956;-89
2021/08/26 04:52:14;;;;;;;;;;;11.40;99.90;;;;;;6198651;23;20030;-91
2021/08/26 04:55:06;;;;;;;;;;;11.50;99.90;;;;;;6217685;23;19924;-88
2021/08/26 04:57:54;;;;;;;;;;;11.60;99.90;;;;;;6217337;23;19924;-89
2021/08/26 05:00:41;;;;;;;;;;;11.60;99.90;;;;;;6215043;23;20022;-90
2021/08/26 05:03:29;;;;;;;;;;;11.70;99.90;;;;;;6220349;23;19964;-91
2021/08/26 05:06:18;;;;;;;;;;;11.70;99.90;;;;;;6218301;23;19920;-92
2021/08/26 05:09:26;;;;;;;;;;;11.80;99.90;;;;;;6210144;23;20018;-91
2021/08/26 05:12:38;;;;;;;;;;;11.80;99.90;;;;;;6201961;23;19923;-92
2021/08/26 05:15:31;;;;;;;;;;;11.90;99.90;;;;;;6223417;23;20022;-90
2021/08/26 05:18:38;;;;;;;;;;;11.90;99.90;;;;;;6279375;22;19926;-92
2021/08/26 05:21:26;;;;;;;;;;;11.90;99.90;;;;;;6259964;22;19923;-90
2021/08/26 05:24:24;;;;;;;;;;;12.00;99.90;;;;;;6263367;22;20320;-90
2021/08/26 05:27:14;;;;;;;;;;;12.10;99.90;;;;;;6281534;22;19923;-91
2021/08/26 05:30:48;;;;;;;;;;;12.10;99.90;;;;;;6285010;22;20012;-93
2021/08/26 05:33:35;;;;;;;;;;;12.20;99.90;;;;;;6267952;22;19919;-91
2021/08/26 05:36:40;;;;;;;;;;;12.30;99.90;;;;;;6265841;22;19925;-91
2021/08/26 05:39:48;;;;;;;;;;;12.40;99.90;;;;;;6283597;22;19930;-90
2021/08/26 05:42:40;;;;;;;;;;;12.50;99.90;;;;;;6259538;22;20185;-91
2021/08/26 05:45:40;;;;;;;;;;;12.50;99.90;;;;;;6289571;22;19935;-90
2021/08/26 05:48:28;;;;;;;;;;;12.50;99.90;;;;;;6286381;22;19927;-89
2021/08/26 05:51:36;;;;;;;;;;;12.50;99.90;;;;;;6281994;22;19920;-92
2021/08/26 05:54:23;;;;;;;;;;;12.60;99.90;;;;;;6284115;22;19923;-91
2021/08/26 05:57:11;;;;;;;;;;;12.70;99.90;;;;;;6282016;22;19930;-90
2021/08/26 06:00:09;;;;;;;;;;;12.80;99.90;;;;;;6261548;22;19923;-89
2021/08/26 06:03:00;;;;;;;;;;;12.90;99.90;;;;;;6285635;22;20314;-92
2021/08/26 06:05:56;;;;;;;;;;;13.00;99.90;;;;;;6265151;22;19919;-92
2021/08/26 06:08:43;;;;;;;;;;;13.20;99.90;;;;;;6284021;22;19923;-90
2021/08/26 06:11:34;;;;;;;;;;;13.30;99.90;;;;;;6288751;22;19929;-92
2021/08/26 06:14:52;;;;;;;;;;;13.30;99.90;;;;;;6244946;22;20302;-91
2021/08/26 06:17:41;;;;;;;;;;;13.40;99.90;;;;;;6278434;22;19919;-91
2021/08/26 06:20:41;;;;;;;;;;;13.40;99.90;;;;;;6258945;22;19919;-92
2021/08/26 06:23:59;;;;;;;;;;;13.50;99.90;;;;;;6279156;22;19958;-93
2021/08/26 06:26:50;;;;;;;;;;;13.60;99.90;;;;;;6281977;22;19998;-91
2021/08/26 06:29:45;;;;;;;;;;;13.60;99.90;;;;;;6290680;22;19919;-89
2021/08/26 06:33:15;;;;;;;;;;;13.70;99.90;;;;;;6268124;22;19986;-91
2021/08/26 06:36:12;;;;;;;;;;;13.80;99.90;;;;;;6264404;22;19924;-88
2021/08/26 06:39:13;;;;;;;;;;;13.80;99.90;;;;;;6259380;22;19923;-91
2021/08/26 06:42:26;;;;;;;;;;;13.90;99.90;;;;;;6260207;22;19923;-91
2021/08/26 06:45:14;;;;;;;;;;;13.90;99.90;;;;;;6283845;22;19927;-91
2021/08/26 06:48:12;;;;;;;;;;;13.90;99.90;;;;;;6256470;22;19919;-90
2021/08/26 06:51:08;;;;;;;;;;;13.90;99.90;;;;;;6277522;22;19939;-89
2021/08/26 06:53:55;;;;;;;;;;;14.00;99.90;;;;;;6255459;22;19920;-91
2021/08/26 06:56:43;;;;;;;;;;;14.20;99.90;;;;;;6275113;22;19934;-89
2021/08/26 06:59:31;;;;;;;;;;;14.20;99.90;;;;;;6278834;22;20408;-89
2021/08/26 07:02:23;;;;;;;;;;;14.30;99.90;;;;;;6276884;22;20298;-91
2021/08/26 07:05:13;;;;;;;;;;;14.40;99.90;;;;;;6255514;22;19926;-89
2021/08/26 07:08:00;;;;;;;;;;;14.30;99.90;;;;;;6277920;22;19927;-90
2021/08/26 07:10:51;;;;;;;;;;;14.30;99.90;;;;;;6276701;22;20388;-89
2021/08/26 07:13:38;;;;;;;;;;;14.40;99.90;;;;;;6256261;22;20167;-92
2021/08/26 07:16:38;;;;;;;;;;;14.40;99.90;;;;;;6278035;22;19935;-90
2021/08/26 07:19:26;;;;;;;;;;;14.40;99.90;;;;;;6257441;22;19919;-89
2021/08/26 07:22:18;;;;;;;;;;;14.50;99.90;;;;;;6278767;22;20306;-90
2021/08/26 07:25:16;;;;;;;;;;;;;;;;;;;;;
2021/08/26 07:28:21;;;;;;;;;;;14.50;99.90;;;;;;6279601;22;19923;-90
2021/08/26 07:31:08;;;;;;;;;;;14.50;99.90;;;;;;6278383;22;19986;-88
2021/08/26 07:34:01;;;;;;;;;;;14.50;99.90;;;;;;6256340;22;20008;-91
2021/08/26 07:36:54;;;;;;;;;;;14.50;99.90;;;;;;6265526;22;19938;-91
2021/08/26 07:39:44;;;;;;;;;;;14.50;99.90;;;;;;6271311;22;20019;-91
2021/08/26 07:42:34;;;;;;;;;;;14.40;99.90;;;;;;6260331;22;19919;-91
2021/08/26 07:45:22;;;;;;;;;;;14.30;99.90;;;;;;6280441;22;20005;-91
2021/08/26 07:48:09;;;;;;;;;;;14.30;99.90;;;;;;6257183;22;19997;-91
2021/08/26 07:51:02;;;;;;;;;;;14.30;99.90;;;;;;6258700;22;19919;-92
2021/08/26 07:53:52;;;;;;;;;;;14.30;99.90;;;;;;6258075;22;20011;-89
2021/08/26 07:56:39;;;;;;;;;;;14.30;99.90;;;;;;6256749;22;19950;-90
2021/08/26 07:59:28;;;;;;;;;;;14.40;99.90;;;;;;6278357;22;19991;-90
2021/08/26 08:02:16;;;;;;;;;;;14.50;99.90;;;;;;6278550;22;19919;-90
2021/08/26 08:05:03;;;;;;;;;;;14.50;99.90;;;;;;6235721;22;19919;-90
2021/08/26 08:07:51;;;;;;;;;;;14.60;99.90;;;;;;6255383;22;19942;-91
2021/08/26 08:10:44;;;;;;;;;;;14.50;99.90;;;;;;6279742;22;19919;-90
2021/08/26 08:13:31;;;;;;;;;;;14.50;99.90;;;;;;6260892;22;19935;-92
2021/08/26 08:16:20;;;;;;;;;;;14.50;99.90;;;;;;6259957;22;19923;-91
2021/08/26 08:19:10;;;;;;;;;;;14.70;99.90;;;;;;6281715;22;19934;-90
2021/08/26 08:21:59;;;;;;;;;;;14.90;99.90;;;;;;6277579;22;20294;-89
2021/08/26 08:25:05;;;;;;;;;;;15.20;99.90;;;;;;6279029;22;19919;-91
2021/08/26 08:27:54;;;;;;;;;;;15.50;99.90;;;;;;6279734;22;19927;-91
2021/08/26 08:30:50;;;;;;;;;;;15.60;99.90;;;;;;6258944;22;20225;-92
2021/08/26 08:34:06;;;;;;;;;;;15.80;99.90;;;;;;6259872;22;20207;-92
2021/08/26 08:36:53;;;;;;;;;;;15.90;99.90;;;;;;6278971;22;19923;-90
2021/08/26 08:39:42;;;;;;;;;;;15.90;99.90;;;;;;6280124;22;19981;-92
2021/08/26 08:42:35;;;;;;;;;;;15.80;99.90;;;;;;6276723;22;19926;-90
2021/08/26 08:45:22;;;;;;;;;;;15.60;99.90;;;;;;6278811;22;19949;-90
2021/08/26 08:48:33;;;;;;;;;;;15.50;99.90;;;;;;6277909;22;19943;-92
2021/08/26 08:51:41;;;;;;;;;;;15.30;99.90;;;;;;6280370;22;19919;-93
2021/08/26 08:54:46;;;;;;;;;;;15.10;99.90;;;;;;6276914;22;19977;-92
2021/08/26 08:57:51;;;;;;;;;;;14.90;99.90;;;;;;6278489;22;20329;-92
2021/08/26 09:00:51;;;;;;;;;;;14.90;99.90;;;;;;6259138;22;19920;-91
2021/08/26 09:03:57;;;;;;;;;;;14.80;99.90;;;;;;6276352;22;19930;-91
2021/08/26 09:06:45;;;;;;;;;;;14.90;99.90;;;;;;6255730;22;19946;-91
2021/08/26 09:09:49;;;;;;;;;;;15.00;99.90;;;;;;6277245;22;19926;-91
2021/08/26 09:12:42;;;;;;;;;;;15.10;99.90;;;;;;6278444;22;20235;-92
2021/08/26 09:15:50;;;;;;;;;;;15.20;99.90;;;;;;6276171;22;19926;-91
2021/08/26 09:18:39;;;;;;;;;;;15.20;99.90;;;;;;6276314;22;19977;-89
2021/08/26 09:21:49;;;;;;;;;;;;;;;;;;;;;
2021/08/26 09:25:14;;;;;;;;;;;15.10;99.90;;;;;;6277855;22;19919;-92
2021/08/26 09:36:32;;;;;;;;;;;14.80;99.90;;;;;;6248696;23;19984;-91
2021/08/26 09:39:53;;;;;;;;;;;;;;;;;;;;;
2021/08/26 09:46:58;;;;;;;;;;;14.90;99.90;;;;;;5847405;24;20281;-91
2021/08/26 09:50:05;;;;;;;;;;;;;;;;;;;;;
2021/08/26 10:03:38;;;;;;;;;;;15.30;99.90;;;;;;6051148;23;19925;-92
2021/08/26 10:07:18;;;;;;;;;;;;;;;;;;;;;
2021/08/26 10:11:00;;;;;;;;;;;15.30;99.90;;;;;;5983618;24;20013;-92
2021/08/26 11:34:48;;;;;;;;;;;19.10;99.90;;;;;;6249677;23;19962;-92
2021/08/26 11:41:39;;;;;;;;;;;19.10;99.90;;;;;;6229368;23;19908;-94
2021/08/26 11:45:08;;;;;;;;;;;19.30;99.90;;;;;;6218203;23;19927;-92
2021/08/26 11:48:19;;;;;;;;;;;19.30;99.90;;;;;;6124701;23;19925;-91
2021/08/26 11:51:06;;;;;;;;;;;19.40;99.90;;;;;;6124955;23;19924;-89
2021/08/26 11:53:53;;;;;;;;;;;20.90;99.90;;;;;;6104288;23;19928;-89
2021/08/26 11:56:49;;;;;;;;;;;21.90;99.90;;;;;;6123896;23;19936;-94
2021/08/26 11:59:37;;;;;;;;;;;22.00;96.00;;;;;;6105144;23;19925;-92
2021/08/26 12:02:28;;;;;;;;;;;21.40;96.40;;;;;;6128577;23;19921;-90
2021/08/26 12:05:22;;;;;;;;;;;20.70;98.50;;;;;;6107768;23;19925;-91
2021/08/26 12:08:22;;;;;;;;;;;20.30;95.90;;;;;;6126575;23;20332;-91
2021/08/26 12:11:22;;;;;;;;;;;;;;;;;;;;;
2021/08/26 12:14:28;;;;;;;;;;;19.90;99.90;;;;;;6252064;23;19931;-90
2021/08/26 12:17:46;;;;;;;;;;;19.90;97.40;;;;;;6158256;23;19921;-88
2021/08/26 12:20:35;;;;;;;;;;;19.70;98.00;;;;;;6156334;23;19920;-89
2021/08/26 12:23:36;;;;;;;;;;;19.40;99.90;;;;;;6157287;23;19921;-91
2021/08/26 12:26:26;;;;;;;;;;;19.70;99.90;;;;;;6157975;23;19935;-94
2021/08/26 12:29:20;;;;;;;;;;;20.60;97.20;;;;;;6159335;23;19924;-90
2021/08/26 12:32:29;;;;;;;;;;;21.10;96.00;;;;;;6160824;23;19920;-91
2021/08/26 12:35:32;;;;;;;;;;;21.90;94.60;;;;;;6158062;23;20326;-91
2021/08/26 12:38:31;;;;;;;;;;;21.90;91.90;;;;;;6159436;23;19921;-89
2021/08/26 12:41:25;;;;;;;;;;;21.30;93.90;;;;;;6157911;23;19925;-91
2021/08/26 12:44:26;;;;;;;;;;;20.50;97.00;;;;;;6156814;23;19992;-90
2021/08/26 12:47:30;;;;;;;;;;;19.50;98.30;;;;;;6165602;23;19927;-91
2021/08/26 12:50:32;;;;;;;;;;;19.00;99.40;;;;;;6250747;23;19984;-91
2021/08/26 12:53:20;;;;;;;;;;;18.60;99.90;;;;;;6249153;23;19930;-90
2021/08/26 12:56:26;;;;;;;;;;;18.40;98.50;;;;;;6249283;23;20055;-90
2021/08/26 12:59:14;;;;;;;;;;;18.40;99.90;;;;;;6226541;23;19970;-91
2021/08/26 13:02:09;;;;;;;;;;;18.40;99.90;;;;;;6248361;23;20026;-88
2021/08/26 13:05:15;;;;;;;;;;;18.40;99.90;;;;;;6249519;23;20025;-91
2021/08/26 13:08:02;;;;;;;;;;;18.50;99.90;;;;;;6246118;23;20277;-89
2021/08/26 13:10:54;;;;;;;;;;;18.40;99.90;;;;;;6247363;23;20002;-90
2021/08/26 13:13:51;;;;;;;;;;;18.20;99.90;;;;;;6248595;23;19927;-88
2021/08/26 13:16:38;;;;;;;;;;;18.10;99.90;;;;;;6249597;23;19930;-90
2021/08/26 13:19:26;;;;;;;;;;;18.10;99.90;;;;;;6249144;23;19923;-89
2021/08/26 13:22:20;;;;;;;;;;;18.10;99.90;;;;;;6248069;23;20283;-89
2021/08/26 13:25:11;;;;;;;;;;;18.00;99.90;;;;;;6249303;23;19931;-89
2021/08/26 13:28:01;;;;;;;;;;;17.90;99.90;;;;;;6250892;23;20038;-91
2021/08/26 13:30:51;;;;;;;;;;;18.00;99.90;;;;;;6251167;22;20526;-91
2021/08/26 13:33:41;;;;;;;;;;;18.00;99.90;;;;;;6247954;23;19934;-90
2021/08/26 13:36:33;;;;;;;;;;;18.10;99.90;;;;;;6229266;23;19931;-90
2021/08/26 13:39:20;;;;;;;;;;;18.00;99.90;;;;;;6229941;23;19927;-91
2021/08/26 13:42:10;;;;;;;;;;;18.20;99.90;;;;;;6257641;23;19920;-90
2021/08/26 13:45:03;;;;;;;;;;;18.30;99.90;;;;;;6256547;23;20045;-88
2021/08/26 13:47:50;;;;;;;;;;;18.60;99.90;;;;;;6258312;23;20180;-92
2021/08/26 13:50:48;;;;;;;;;;;18.80;99.70;;;;;;6255347;23;19919;-92
2021/08/26 13:53:35;;;;;;;;;;;19.00;99.90;;;;;;6241231;23;19999;-89
2021/08/26 13:56:23;;;;;;;;;;;19.20;97.40;;;;;;6265019;22;19919;-90
2021/08/26 13:59:12;;;;;;;;;;;19.20;98.80;;;;;;6263034;23;19923;-88
2021/08/26 14:01:59;;;;;;;;;;;19.50;99.30;;;;;;6259495;23;19943;-90
2021/08/26 14:04:47;;;;;;;;;;;20.00;95.80;;;;;;6259262;23;19919;-90
2021/08/26 14:07:34;;;;;;;;;;;19.90;94.80;;;;;;6257132;23;19946;-91
2021/08/26 14:10:22;;;;;;;;;;;19.70;95.20;;;;;;6253192;23;19923;-89
2021/08/26 14:13:09;;;;;;;;;;;20.00;98.80;;;;;;6228661;23;19920;-90
2021/08/26 14:16:00;;;;;;;;;;;20.80;95.40;;;;;;6229745;23;19923;-91
2021/08/26 14:18:49;;;;;;;;;;;21.20;94.80;;;;;;6226733;23;20003;-91
2021/08/26 14:21:36;;;;;;;;;;;21.80;91.40;;;;;;6245809;23;19931;-88
2021/08/26 14:24:26;;;;;;;;;;;22.20;91.10;;;;;;6247771;23;19919;-92
2021/08/26 14:27:14;;;;;;;;;;;21.90;86.30;;;;;;6207483;23;19942;-91
2021/08/26 14:30:04;;;;;;;;;;;21.40;90.50;;;;;;6227646;23;19919;-91
2021/08/26 14:32:51;;;;;;;;;;;21.10;91.80;;;;;;6247760;22;19928;-89
2021/08/26 14:35:39;;;;;;;;;;;21.20;96.30;;;;;;6245640;23;19931;-88
2021/08/26 14:38:29;;;;;;;;;;;21.80;89.90;;;;;;6247310;23;19920;-89
2021/08/26 14:41:18;;;;;;;;;;;22.20;82.40;;;;;;6245965;23;20028;-89
2021/08/26 14:44:06;;;;;;;;;;;22.20;85.70;;;;;;6248701;23;20029;-91
2021/08/26 14:46:53;;;;;;;;;;;22.80;88.00;;;;;;6250462;23;19924;-87
2021/08/26 14:49:54;;;;;;;;;;;23.30;79.60;;;;;;6246817;23;19935;-91
2021/08/26 14:52:46;;;;;;;;;;;24.40;72.10;;;;;;6247055;23;19939;-89
2021/08/26 14:55:33;;;;;;;;;;;25.50;72.80;;;;;;6249165;23;20541;-93
2021/08/26 14:58:26;;;;;;;;;;;26.20;68.50;;;;;;6246121;23;19931;-90
2021/08/26 15:01:13;;;;;;;;;;;25.90;65.70;;;;;;6245356;23;19920;-91
2021/08/26 15:04:04;;;;;;;;;;;24.80;65.50;;;;;;6249927;22;19920;-91
2021/08/26 15:06:51;;;;;;;;;;;23.30;69.70;;;;;;6258611;23;20025;-93
2021/08/26 15:09:39;;;;;;;;;;;21.70;76.50;;;;;;6256606;23;19924;-91
2021/08/26 15:12:31;;;;;;;;;;;20.90;82.70;;;;;;6252738;23;19982;-90
2021/08/26 15:15:18;;;;;;;;;;;20.40;82.90;;;;;;6238876;23;19920;-89
2021/08/26 15:18:08;;;;;;;;;;;20.00;90.90;;;;;;6257070;23;20189;-89
2021/08/26 15:20:55;;;;;;;;;;;19.80;90.50;;;;;;6229506;23;19927;-87
2021/08/26 15:23:42;;;;;;;;;;;19.40;92.80;;;;;;6255427;23;20022;-92
2021/08/26 15:26:31;;;;;;;;;;;19.00;91.90;;;;;;6255606;23;19981;-94
2021/08/26 15:29:21;;;;;;;;;;;18.70;92.80;;;;;;6252244;23;19993;-92
2021/08/26 15:32:10;;;;;;;;;;;18.30;93.50;;;;;;6258509;23;19927;-93
2021/08/26 15:34:57;;;;;;;;;;;18.10;95.10;;;;;;6257081;23;19923;-92
2021/08/26 15:37:44;;;;;;;;;;;17.90;97.70;;;;;;6255932;23;19923;-91
2021/08/26 15:40:34;;;;;;;;;;;17.80;98.10;;;;;;6232101;23;19927;-93
2021/08/26 15:43:21;;;;;;;;;;;17.60;97.00;;;;;;6252691;23;19934;-91
2021/08/26 15:46:08;;;;;;;;;;;17.60;97.20;;;;;;6253130;23;19931;-91
2021/08/26 15:48:57;;;;;;;;;;;17.50;98.40;;;;;;6250630;23;19931;-93
2021/08/26 15:51:45;;;;;;;;;;;17.40;97.80;;;;;;6250418;23;19923;-93
2021/08/26 15:54:38;;;;;;;;;;;17.20;99.30;;;;;;6249973;23;19920;-90
2021/08/26 16:03:21;;;;;;;;;;;17.30;99.90;;;;;;6231002;23;20176;-93
2021/08/26 16:06:08;;;;;;;;;;;17.30;99.90;;;;;;6251684;23;20306;-90
2021/08/26 16:09:00;;;;;;;;;;;17.20;99.90;;;;;;6251050;23;19924;-91
2021/08/26 16:11:47;;;;;;;;;;;17.20;99.80;;;;;;6255290;23;19995;-92
2021/08/26 16:14:34;;;;;;;;;;;17.20;99.90;;;;;;6232112;23;19999;-92
2021/08/26 16:17:24;;;;;;;;;;;17.50;99.90;;;;;;6245737;23;19920;-90
2021/08/26 16:20:14;;;;;;;;;;;17.80;98.20;;;;;;6228450;23;20057;-90
2021/08/26 16:23:04;;;;;;;;;;;17.90;99.10;;;;;;6227230;23;20042;-91
2021/08/26 16:25:51;;;;;;;;;;;17.70;98.80;;;;;;6248139;23;20291;-92
2021/08/26 16:28:38;;;;;;;;;;;17.60;98.60;;;;;;6230655;23;19930;-92
2021/08/26 16:31:25;;;;;;;;;;;17.40;99.90;;;;;;6248078;23;19927;-88
2021/08/26 16:34:14;;;;;;;;;;;17.10;99.90;;;;;;6223380;23;19931;-90
2021/08/26 16:37:01;;;;;;;;;;;17.00;99.90;;;;;;6246187;23;19931;-92
2021/08/26 16:39:49;;;;;;;;;;;16.70;99.90;;;;;;6245629;23;19930;-88
2021/08/26 16:42:37;;;;;;;;;;;16.60;99.90;;;;;;6248153;23;19976;-90
2021/08/26 16:45:27;;;;;;;;;;;16.50;99.90;;;;;;6246310;23;19919;-90
2021/08/26 16:48:15;;;;;;;;;;;16.30;99.90;;;;;;6250578;22;19955;-90
2021/08/26 16:51:03;;;;;;;;;;;16.30;99.90;;;;;;6247585;23;20017;-89
2021/08/26 16:53:52;;;;;;;;;;;16.20;99.90;;;;;;6247173;23;19920;-89
2021/08/26 16:56:41;;;;;;;;;;;16.10;99.90;;;;;;6249475;23;19927;-90
2021/08/26 16:59:29;;;;;;;;;;;16.00;99.90;;;;;;6256593;23;19926;-90
2021/08/26 17:02:17;;;;;;;;;;;16.00;99.90;;;;;;6258182;23;20022;-89
2021/08/26 17:05:05;;;;;;;;;;;16.00;99.90;;;;;;6209466;23;19920;-91
2021/08/26 17:07:52;;;;;;;;;;;16.00;99.90;;;;;;6249375;23;19923;-89
2021/08/26 17:10:42;;;;;;;;;;;15.90;99.90;;;;;;6246744;23;20285;-89
2021/08/26 17:13:30;;;;;;;;;;;16.00;99.90;;;;;;6249331;22;19927;-90
2021/08/26 17:16:23;;;;;;;;;;;15.90;99.90;;;;;;6247302;23;19950;-89
2021/08/26 17:19:11;;;;;;;;;;;15.80;99.90;;;;;;6247938;23;20299;-90
2021/08/26 17:22:00;;;;;;;;;;;15.80;99.90;;;;;;6247742;23;19977;-94
2021/08/26 17:24:47;;;;;;;;;;;15.70;99.90;;;;;;6250239;23;19923;-89
2021/08/26 17:27:36;;;;;;;;;;;15.60;99.90;;;;;;6247481;23;20322;-92
2021/08/26 17:30:23;;;;;;;;;;;15.50;99.90;;;;;;6248308;23;19970;-91
2021/08/26 17:33:10;;;;;;;;;;;15.40;99.90;;;;;;6247426;23;20199;-89
2021/08/26 17:35:58;;;;;;;;;;;15.30;99.90;;;;;;6248120;23;19920;-90
2021/08/26 17:38:45;;;;;;;;;;;15.20;99.90;;;;;;6246218;23;19919;-88
2021/08/26 17:41:32;;;;;;;;;;;15.10;99.90;;;;;;6246042;23;19975;-91
2021/08/26 17:44:19;;;;;;;;;;;15.00;99.90;;;;;;6247036;23;19919;-90
2021/08/26 17:47:07;;;;;;;;;;;14.90;99.90;;;;;;6248286;23;19923;-89
2021/08/26 17:49:54;;;;;;;;;;;14.80;99.90;;;;;;6246327;23;20388;-89
2021/08/26 17:52:44;;;;;;;;;;;14.70;99.90;;;;;;6225429;23;20441;-89
2021/08/26 17:55:32;;;;;;;;;;;14.60;99.90;;;;;;6248501;22;20279;-90
2021/08/26 17:58:19;;;;;;;;;;;14.50;99.90;;;;;;6232948;23;19971;-90
2021/08/26 18:01:09;;;;;;;;;;;14.30;99.90;;;;;;6250783;23;19934;-90
2021/08/26 18:03:56;;;;;;;;;;;14.20;99.90;;;;;;6252476;23;19923;-89
2021/08/26 18:06:46;;;;;;;;;;;14.10;99.90;;;;;;6250565;23;19919;-88
2021/08/26 18:09:37;;;;;;;;;;;14.10;99.90;;;;;;6251280;23;19931;-88
2021/08/26 18:12:24;;;;;;;;;;;14.00;99.90;;;;;;6252044;23;19927;-90
2021/08/26 18:15:12;;;;;;;;;;;14.00;99.90;;;;;;6248081;23;19923;-91
2021/08/26 18:18:00;;;;;;;;;;;14.00;99.90;;;;;;6247556;23;19923;-90
2021/08/26 18:20:47;;;;;;;;;;;14.00;99.90;;;;;;6245949;23;19942;-91
2021/08/26 18:23:34;;;;;;;;;;;14.00;99.90;;;;;;6221361;23;20049;-90
2021/08/26 18:26:22;;;;;;;;;;;14.00;99.90;;;;;;6243837;23;20270;-91
2021/08/26 18:29:09;;;;;;;;;;;13.90;99.90;;;;;;6246188;23;20330;-90
2021/08/26 18:31:56;;;;;;;;;;;13.80;99.90;;;;;;6201689;23;19923;-91
2021/08/26 18:34:49;;;;;;;;;;;13.70;99.90;;;;;;6246033;23;19997;-92
2021/08/26 18:37:37;;;;;;;;;;;13.60;99.90;;;;;;6224795;23;20274;-89
2021/08/26 18:40:25;;;;;;;;;;;13.50;99.90;;;;;;6245367;23;19931;-89
2021/08/26 18:43:16;;;;;;;;;;;13.40;99.90;;;;;;6223761;23;19921;-88
2021/08/26 18:46:05;;;;;;;;;;;13.40;99.90;;;;;;6247700;23;20211;-90
2021/08/26 18:48:53;;;;;;;;;;;13.30;99.90;;;;;;6243750;23;19927;-91
2021/08/26 18:51:40;;;;;;;;;;;13.20;99.90;;;;;;6244586;23;19970;-89
2021/08/26 18:54:29;;;;;;;;;;;13.10;99.90;;;;;;6244033;23;19935;-90
2021/08/26 18:57:21;;;;;;;;;;;13.00;99.90;;;;;;6245173;23;20006;-90
2021/08/26 19:00:09;;;;;;;;;;;12.80;99.90;;;;;;6242284;23;20312;-90
2021/08/26 19:03:01;;;;;;;;;;;12.60;99.90;;;;;;6243369;23;19924;-90
2021/08/26 19:05:51;;;;;;;;;;;12.40;99.90;;;;;;6244697;23;19931;-90
2021/08/26 19:08:42;;;;;;;;;;;12.20;99.90;;;;;;6246929;23;20018;-90